Sioux City, IA

4:22 AM CDT on August 02, 2014 (GMT -0500)
Northside Jones House (KIASIOUX1) Elev 1253 ft | 42.55 °N, 96.41 °W | Change Station

Current weather conditions updated 8 minutes ago

Clear
Clear
58.0 °F
Feels Like 58.0 °F
N
0.0
Wind Variable Wind from ESE
Gusts 0.0 mph

Today is forecast to be nearly the same temperature as yesterday. A few thunderstorms possible tonight.

Today
High -- | Low -- °F
--% Chance of Precip.
Yesterday
High -- | Low -- °F
Precip. -- in
6:18 AM 8:44 PM
Waxing Crescent, 34% visible
Pressure 30.11 in
Visibility 7.0 miles
Clouds Clear
Dew Point 42 °F
Humidity 56%
Rainfall -999.00 in
Snow Depth Not available.
UV 0 out of 12
Pollen 6.20 out of 12
Air Quality Not available.
Flu Activity Not available.
METAR KSUX 020852Z 00000KT 7SM CLR 16/15 A3013 RMK AO2 SLP196 T01610150 50006

More Conditions Fewer Conditions

Pressure 30.11 in
Visibility 7.0 miles
Clouds Clear
Dew Point 42 °F
Humidity 56%
Rainfall -999.00 in
Snow Depth Not available.
UV 0 out of 12
Pollen 6.20 out of 12
Air Quality Not available.
Flu Activity Not available.
METAR KSUX 020852Z 00000KT 7SM CLR 16/15 A3013 RMK AO2 SLP196 T01610150 50006

More Conditions Fewer Conditions

10-Day Weather Forecast

Almanac

Astronomy

Aug. 02, 2014 Rise Set
Actual Time 6:18 AM CDT 8:44 PM CDT
Civil Twilight 5:47 AM CDT 9:15 PM CDT
Nautical Twilight 5:07 AM CDT 9:55 PM CDT
Astronomical Twilight 4:23 AM CDT 10:38 PM CDT
Moon 12:50 PM CDT 11:53 PM CDT
Length of Visible Light 15h 28m
Length of Day
14h 25m
Tomorrow will be 2m 14s shorter.
Waxing Crescent, 34% of the Moon is Illuminated
Today
Waxing Crescent
Aug 3
First Quarter
Aug 10
Full
Aug 17
Last Quarter
Aug 25
New

Today's Extremes

State Highs State Lows

Community

WunderPhotos

Upload Photos

1,739,850 photos uploaded!

Nearby

Snow Depth

Station Depth Elevation
No new snow has been reported.

Earthquake Activity

City Distance Mag. Time & Date
No recent earthquake activity has been reported nearby.
Minimum magnitude displayed is 2.5.

Coastal Water Temperatures

Place Temperature
No Stations Reporting

Nearby Weather Stations

Station Location Temp. Dew Point Humidity Wind Precip. Elev Updated Type
Northside Jones House, Sioux City, IA 58.0 °F 42 °F 56% ESE  at  0.0 mph 0.00 in / hr 1253 ft 4:14 AM CDT Normal
McCook Lake SD, McCook Lake, SD 63.1 °F 62 °F 98% ENE  at  0.0 mph 0.00 in / hr 1114 ft 4:22 AM CDT Rapid Fire
MesoWest SALIX , Salix, IA 61 °F - - North  at  - 0.00 in / hr 1077 ft 2:20 AM CDT MADIS
Rural Elk Point, Elk Point, SD 59.9 °F 58 °F 93% East  at  0.7 mph 0.00 in / hr 1119 ft 4:20 AM CDT Normal
SSW Union, Kingsley, IA 59.1 °F 53 °F 80% WNW  at  0.0 mph 0.00 in / hr 1368 ft 4:20 AM CDT Normal
HADS WEST FORK DITCH AT HORNICK IA, Rodney, IA 60 °F - - North  at  - 0.00 in / hr 1045 ft 3:00 AM CDT MADIS
Down Town, LeMars, IA 59.0 °F 53 °F 82% North  at  0.0 mph 0.00 in / hr 1220 ft 4:19 AM CDT Normal

Show More Stations Show Fewer Stations